Time;durP1;ratioP1;P1;durP2;ratioP2;P2;SDS_P1;SDS_P2;PMS_P1;PMS_P2;Temp;Humidity;BMP_temperature;BMP_pressure;BME280_temperature;BME280_humidity;BME280_pressure;Samples;Min_cycle;Max_cycle;Signal;HPM_P1;HPM_P2
2022/07/20 00:02:25;;;;;;;4.80;4.40;;;28.20;38.30;;;;;;5030058;28;20185;-43
2022/07/20 00:04:52;;;;;;;6.30;5.50;;;28.30;37.90;;;;;;5029831;28;20197;-46
2022/07/20 00:07:18;;;;;;;4.83;4.33;;;28.40;37.70;;;;;;5028483;28;20193;-43
2022/07/20 00:12:45;;;;;;;5.03;4.50;;;28.30;37.60;;;;;;5027181;28;20308;-43
2022/07/20 00:15:11;;;;;;;5.57;4.60;;;28.30;37.40;;;;;;5023270;28;21036;-43
2022/07/20 00:17:36;;;;;;;5.23;4.83;;;28.40;37.20;;;;;;5030507;28;20268;-44
2022/07/20 00:20:03;;;;;;;6.83;5.30;;;28.40;37.30;;;;;;5034632;28;20215;-43
2022/07/20 00:22:29;;;;;;;7.73;4.97;;;28.20;37.20;;;;;;5033943;28;20675;-43
2022/07/20 00:24:54;;;;;;;7.47;4.67;;;28.30;37.20;;;;;;5034091;28;20424;-43
2022/07/20 00:27:20;;;;;;;5.30;4.57;;;28.40;37.10;;;;;;5033717;28;20231;-44
2022/07/20 00:29:45;;;;;;;5.40;4.90;;;28.50;37.10;;;;;;5033565;28;20668;-45
2022/07/20 00:32:11;;;;;;;5.00;4.50;;;28.50;37.20;;;;;;5033905;28;20230;-43
2022/07/20 00:34:37;;;;;;;5.30;4.50;;;28.50;37.40;;;;;;5032256;28;20702;-43
2022/07/20 00:37:02;;;;;;;5.50;5.00;;;28.40;37.40;;;;;;5033492;28;20742;-43
2022/07/20 00:39:28;;;;;;;6.97;5.20;;;28.30;37.50;;;;;;5033364;28;20212;-44
2022/07/20 00:41:54;;;;;;;5.73;4.40;;;28.30;37.80;;;;;;5032507;28;20225;-43
2022/07/20 00:44:19;;;;;;;5.40;4.83;;;28.20;38.10;;;;;;5031323;28;20197;-43
2022/07/20 00:46:46;;;;;;;5.60;5.20;;;28.00;38.60;;;;;;5028380;28;20648;-43
2022/07/20 00:49:13;;;;;;;6.20;4.60;;;27.90;38.80;;;;;;5033058;28;20204;-43
2022/07/20 00:51:41;;;;;;;5.60;4.90;;;27.80;39.20;;;;;;5033781;28;20430;-43
2022/07/20 00:54:08;;;;;;;6.20;4.80;;;27.60;39.40;;;;;;5033313;28;20561;-44
2022/07/20 00:56:35;;;;;;;8.77;4.60;;;27.60;39.40;;;;;;5033261;28;20894;-43
2022/07/20 00:59:05;;;;;;;9.10;5.00;;;27.60;39.30;;;;;;5033307;28;20917;-44
2022/07/20 01:01:31;;;;;;;6.63;5.20;;;27.80;39.10;;;;;;5031994;28;20420;-43
2022/07/20 01:03:57;;;;;;;5.87;4.30;;;27.60;39.20;;;;;;5033096;28;21055;-43
2022/07/20 01:06:23;;;;;;;6.57;4.90;;;27.30;39.80;;;;;;5033030;28;20493;-43
2022/07/20 01:08:51;;;;;;;6.53;4.90;;;27.40;39.80;;;;;;5064797;28;20225;-43
2022/07/20 01:11:17;;;;;;;7.13;4.77;;;27.60;39.40;;;;;;5033488;28;20243;-42
2022/07/20 01:13:43;;;;;;;5.67;5.17;;;27.70;39.80;;;;;;5032896;28;20484;-43
2022/07/20 01:16:09;;;;;;;11.63;5.80;;;27.70;38.90;;;;;;5033007;28;20427;-43
2022/07/20 01:18:35;;;;;;;5.67;5.00;;;27.70;38.70;;;;;;5032724;28;20204;-44
2022/07/20 01:21:05;;;;;;;5.10;4.70;;;27.70;38.70;;;;;;5032855;28;20552;-44
2022/07/20 01:23:31;;;;;;;6.60;4.50;;;27.80;38.50;;;;;;5032574;28;20667;-43
2022/07/20 01:25:57;;;;;;;5.40;4.40;;;27.80;38.40;;;;;;5032692;28;20420;-43
2022/07/20 01:28:23;;;;;;;6.77;5.03;;;27.90;38.40;;;;;;5030834;28;20193;-44
2022/07/20 01:30:49;;;;;;;9.03;5.20;;;27.90;38.40;;;;;;5031904;28;20432;-43
2022/07/20 01:33:15;;;;;;;5.93;4.30;;;27.90;38.40;;;;;;5032390;28;20765;-43
2022/07/20 01:35:41;;;;;;;5.77;4.53;;;27.90;38.40;;;;;;5032828;28;20193;-43
2022/07/20 01:38:06;;;;;;;5.37;4.83;;;28.00;38.50;;;;;;5032316;28;20610;-44
2022/07/20 01:40:32;;;;;;;5.47;4.97;;;28.00;38.60;;;;;;5032751;28;20193;-43
2022/07/20 01:42:58;;;;;;;5.00;4.60;;;27.90;38.50;;;;;;5032261;28;20189;-43
2022/07/20 01:45:23;;;;;;;5.87;5.13;;;27.90;38.60;;;;;;5024729;28;20837;-43
2022/07/20 01:47:49;;;;;;;6.27;5.50;;;27.90;38.80;;;;;;5032231;28;20876;-43
2022/07/20 01:50:15;;;;;;;7.20;4.67;;;27.90;38.80;;;;;;5032747;28;20185;-43
2022/07/20 01:52:40;;;;;;;5.13;4.47;;;27.90;39.00;;;;;;5032155;28;20675;-43
2022/07/20 01:55:06;;;;;;;6.43;4.87;;;27.80;39.00;;;;;;5030509;28;20228;-44
2022/07/20 01:57:32;;;;;;;5.50;5.00;;;27.80;39.20;;;;;;5031885;28;20624;-43
2022/07/20 01:59:57;;;;;;;5.63;5.07;;;27.70;39.40;;;;;;5032711;28;20193;-44
2022/07/20 02:02:23;;;;;;;5.67;4.90;;;27.70;39.40;;;;;;5032578;28;20197;-44
2022/07/20 02:04:49;;;;;;;7.67;4.67;;;27.60;39.50;;;;;;5031811;28;20205;-47
2022/07/20 02:07:14;;;;;;;5.33;4.33;;;27.60;39.60;;;;;;5031925;28;20193;-47
2022/07/20 02:09:40;;;;;;;7.00;5.60;;;27.50;39.70;;;;;;5030460;28;20208;-44
2022/07/20 02:12:06;;;;;;;6.37;4.90;;;27.40;39.80;;;;;;5032352;28;20645;-43
2022/07/20 02:14:32;;;;;;;8.43;5.20;;;27.40;40.00;;;;;;5031387;28;20229;-46
2022/07/20 02:16:57;;;;;;;5.47;5.00;;;27.30;40.20;;;;;;5031846;28;20193;-43
2022/07/20 02:19:23;;;;;;;8.40;4.70;;;27.00;40.50;;;;;;5031583;28;20213;-45
2022/07/20 02:21:48;;;;;;;5.97;5.00;;;26.90;41.00;;;;;;5030660;28;20199;-45
2022/07/20 02:24:14;;;;;;;6.50;5.67;;;26.80;41.20;;;;;;5031387;28;20197;-48
2022/07/20 02:26:40;;;;;;;7.93;5.60;;;26.80;41.80;;;;;;5031887;28;20200;-47
2022/07/20 02:29:05;;;;;;;5.80;5.10;;;26.80;41.00;;;;;;5031327;28;20196;-43
2022/07/20 02:31:31;;;;;;;6.13;5.53;;;26.90;41.30;;;;;;5031818;28;20221;-44
2022/07/20 02:33:57;;;;;;;7.97;5.60;;;26.80;41.40;;;;;;5030955;28;20742;-45
2022/07/20 02:36:22;;;;;;;5.47;4.97;;;26.70;41.80;;;;;;5031289;28;20320;-45
2022/07/20 02:38:48;;;;;;;5.93;5.00;;;26.70;42.00;;;;;;5031234;28;20672;-43
2022/07/20 02:41:13;;;;;;;6.60;5.83;;;26.60;42.10;;;;;;5031478;28;20196;-44
2022/07/20 02:43:39;;;;;;;5.90;5.13;;;26.60;42.10;;;;;;5030857;28;20681;-46
2022/07/20 02:46:06;;;;;;;5.40;4.90;;;26.40;42.50;;;;;;5024098;28;20672;-44
2022/07/20 02:48:32;;;;;;;5.80;5.10;;;26.30;42.60;;;;;;5029474;28;20482;-44
2022/07/20 02:50:57;;;;;;;7.13;5.50;;;26.40;42.50;;;;;;5031570;28;20185;-44
2022/07/20 02:53:23;;;;;;;9.63;5.20;;;26.40;42.50;;;;;;5030859;28;20217;-44
2022/07/20 02:55:49;;;;;;;5.83;5.43;;;26.40;42.40;;;;;;5030998;28;20264;-43
2022/07/20 02:58:15;;;;;;;8.30;6.30;;;26.50;42.20;;;;;;5030810;28;20292;-44
2022/07/20 03:00:41;;;;;;;6.07;5.47;;;26.50;42.10;;;;;;5031234;28;20204;-44
2022/07/20 03:03:07;;;;;;;6.27;5.50;;;26.60;42.20;;;;;;5030665;28;20660;-45
2022/07/20 03:05:34;;;;;;;5.70;5.20;;;26.50;42.20;;;;;;5030940;28;20482;-43
2022/07/20 03:08:00;;;;;;;6.77;4.47;;;26.50;42.30;;;;;;5030727;28;20201;-43
2022/07/20 03:10:26;;;;;;;7.47;5.90;;;26.40;42.50;;;;;;5031230;28;20464;-46
2022/07/20 03:12:52;;;;;;;6.47;5.63;;;26.10;42.90;;;;;;5030384;28;20924;-45
2022/07/20 03:15:18;;;;;;;6.67;6.00;;;26.00;43.40;;;;;;5029095;28;20484;-45
2022/07/20 03:17:49;;;;;;;7.70;6.23;;;25.80;43.60;;;;;;5030310;28;20207;-45
2022/07/20 03:20:23;;;;;;;8.17;5.20;;;25.80;43.90;;;;;;5030908;28;20519;-44
2022/07/20 03:22:50;;;;;;;5.80;5.20;;;25.80;44.20;;;;;;5030339;28;20436;-43
2022/07/20 03:25:16;;;;;;;7.07;5.23;;;25.70;44.40;;;;;;5030604;28;20435;-46
2022/07/20 03:27:41;;;;;;;7.27;5.53;;;25.60;44.70;;;;;;5030389;28;20899;-44
2022/07/20 03:30:08;;;;;;;6.30;5.53;;;25.60;44.50;;;;;;5031037;28;20193;-46
2022/07/20 03:32:34;;;;;;;7.03;6.00;;;25.70;44.30;;;;;;5030128;28;20193;-43
2022/07/20 03:35:00;;;;;;;10.17;5.63;;;25.60;44.60;;;;;;5030185;28;20502;-43
2022/07/20 03:37:25;;;;;;;6.00;5.40;;;25.60;44.50;;;;;;5030478;28;20971;-43
2022/07/20 03:39:51;;;;;;;6.23;5.20;;;25.70;44.30;;;;;;5030399;28;20205;-47
2022/07/20 03:42:17;;;;;;;6.10;5.00;;;25.80;44.10;;;;;;5029254;28;20197;-44
2022/07/20 03:44:42;;;;;;;6.80;6.10;;;25.80;44.10;;;;;;5026644;28;20598;-43
2022/07/20 03:47:08;;;;;;;6.00;5.20;;;25.70;44.80;;;;;;5030628;28;20189;-45
2022/07/20 03:49:34;;;;;;;7.10;5.70;;;25.60;44.20;;;;;;5030140;28;20267;-45
2022/07/20 03:51:59;;;;;;;7.40;6.00;;;25.40;44.60;;;;;;5030268;28;20355;-43
2022/07/20 03:54:25;;;;;;;6.43;5.57;;;25.40;44.70;;;;;;5029590;28;20588;-43
2022/07/20 03:56:50;;;;;;;5.40;4.90;;;25.30;44.80;;;;;;5029837;28;20189;-43
2022/07/20 03:59:16;;;;;;;9.50;5.83;;;25.20;44.90;;;;;;5029997;28;20201;-43
2022/07/20 04:01:42;;;;;;;6.70;5.20;;;25.10;45.10;;;;;;5030467;28;20201;-44
2022/07/20 04:04:08;;;;;;;7.67;5.50;;;25.20;45.20;;;;;;5029927;28;20212;-43
2022/07/20 04:06:34;;;;;;;7.33;6.23;;;24.90;45.70;;;;;;5029736;28;20197;-43
2022/07/20 04:09:00;;;;;;;7.30;5.63;;;24.80;46.30;;;;;;5028116;28;20806;-44
2022/07/20 04:11:26;;;;;;;6.23;5.63;;;24.80;46.60;;;;;;5030383;28;20428;-46
2022/07/20 04:13:52;;;;;;;6.50;5.90;;;24.50;46.90;;;;;;5029828;28;20217;-43
2022/07/20 04:16:18;;;;;;;6.60;5.93;;;24.40;47.20;;;;;;5029959;28;20189;-44
2022/07/20 04:18:43;;;;;;;8.17;5.43;;;24.50;47.40;;;;;;5029528;28;20512;-44
2022/07/20 04:21:09;;;;;;;12.27;5.93;;;24.40;47.30;;;;;;5030264;28;20200;-45
2022/07/20 04:23:35;;;;;;;7.10;6.33;;;24.30;47.60;;;;;;5029862;28;20652;-43
2022/07/20 04:26:00;;;;;;;9.20;5.97;;;24.10;48.00;;;;;;5029865;28;20197;-43
2022/07/20 04:28:26;;;;;;;7.03;5.77;;;24.10;48.20;;;;;;5029483;28;20797;-46
2022/07/20 04:30:51;;;;;;;6.63;5.70;;;24.00;48.40;;;;;;5030009;28;20647;-43
2022/07/20 04:33:18;;;;;;;7.13;5.57;;;23.90;48.90;;;;;;5029704;28;20239;-43
2022/07/20 04:35:45;;;;;;;7.70;5.70;;;23.70;49.10;;;;;;5028163;28;20193;-45
2022/07/20 04:38:13;;;;;;;7.07;6.33;;;23.90;49.00;;;;;;5029452;28;20464;-43
2022/07/20 04:40:42;;;;;;;5.83;5.23;;;24.00;48.60;;;;;;5030221;28;20443;-43
2022/07/20 04:43:08;;;;;;;7.07;6.37;;;24.20;48.30;;;;;;5029652;28;20512;-43
2022/07/20 04:45:33;;;;;;;7.80;7.00;;;24.10;48.30;;;;;;5022038;28;20558;-43
2022/07/20 04:48:00;;;;;;;11.17;6.73;;;24.30;48.10;;;;;;5029536;28;20260;-43
2022/07/20 04:50:25;;;;;;;7.10;6.10;;;24.50;47.80;;;;;;5030005;28;20193;-43
2022/07/20 04:52:51;;;;;;;13.67;7.30;;;24.50;47.60;;;;;;5029631;28;20434;-43
2022/07/20 04:55:17;;;;;;;6.37;5.80;;;24.50;47.60;;;;;;5029323;28;20225;-43
2022/07/20 04:57:42;;;;;;;11.90;5.43;;;24.60;47.70;;;;;;5029457;28;20220;-42
2022/07/20 05:00:08;;;;;;;7.27;5.60;;;24.30;48.00;;;;;;5030316;28;20189;-43
2022/07/20 05:02:34;;;;;;;6.10;5.00;;;24.20;48.00;;;;;;5026380;28;20204;-43
2022/07/20 05:04:59;;;;;;;6.50;5.90;;;24.30;48.20;;;;;;5032263;28;20228;-43
2022/07/20 05:07:25;;;;;;;7.57;5.20;;;24.60;47.90;;;;;;5033444;28;20190;-43
2022/07/20 05:09:51;;;;;;;8.53;5.80;;;24.50;48.00;;;;;;5032909;28;20256;-42
2022/07/20 05:12:16;;;;;;;6.73;6.03;;;24.40;48.00;;;;;;5033662;28;20194;-42
2022/07/20 05:14:42;;;;;;;9.90;6.43;;;24.20;48.60;;;;;;5032389;28;20221;-43
2022/07/20 05:17:08;;;;;;;12.40;5.77;;;24.20;48.90;;;;;;5033341;28;20193;-43
2022/07/20 05:19:33;;;;;;;10.37;5.90;;;24.30;48.70;;;;;;5032597;28;20599;-43
2022/07/20 05:21:59;;;;;;;15.00;5.40;;;24.10;49.20;;;;;;5033200;28;20863;-43
2022/07/20 05:24:25;;;;;;;8.37;5.53;;;23.90;49.50;;;;;;5032659;28;20193;-43
2022/07/20 05:26:51;;;;;;;6.43;5.70;;;24.00;49.60;;;;;;5032764;28;20196;-42
2022/07/20 05:29:17;;;;;;;6.90;6.40;;;24.50;48.90;;;;;;5030644;28;20481;-42
2022/07/20 05:31:43;;;;;;;8.27;5.00;;;24.80;48.30;;;;;;5033220;28;20283;-43
2022/07/20 05:34:08;;;;;;;6.50;5.80;;;25.00;47.60;;;;;;5032549;28;20475;-43
2022/07/20 05:36:34;;;;;;;6.80;5.10;;;25.30;47.00;;;;;;5032181;28;20265;-43
2022/07/20 05:39:00;;;;;;;6.83;5.50;;;25.40;46.70;;;;;;5032255;28;20200;-43
2022/07/20 05:41:25;;;;;;;5.73;4.70;;;25.50;46.60;;;;;;5032922;28;20185;-42
2022/07/20 05:43:51;;;;;;;5.63;5.00;;;25.60;46.20;;;;;;5032243;28;20198;-43
2022/07/20 05:46:17;;;;;;;5.93;5.30;;;25.80;45.90;;;;;;5024957;28;20208;-44
2022/07/20 05:48:43;;;;;;;5.47;4.97;;;26.00;45.50;;;;;;5032215;28;20201;-43
2022/07/20 05:51:08;;;;;;;5.70;5.07;;;26.10;45.50;;;;;;5032971;28;20608;-43
2022/07/20 05:53:34;;;;;;;7.50;4.97;;;26.00;45.60;;;;;;5032053;28;20565;-43
2022/07/20 05:55:59;;;;;;;5.70;4.30;;;25.90;45.90;;;;;;5031113;28;20219;-43
2022/07/20 05:58:25;;;;;;;7.80;5.00;;;25.90;46.00;;;;;;5031210;28;20193;-43
2022/07/20 06:00:51;;;;;;;7.50;5.50;;;25.80;45.90;;;;;;5032392;28;20193;-43
2022/07/20 06:03:16;;;;;;;6.33;5.20;;;25.90;45.90;;;;;;5031648;28;20204;-43
2022/07/20 06:05:42;;;;;;;9.03;4.90;;;25.90;45.80;;;;;;5032090;28;20200;-43
2022/07/20 06:08:08;;;;;;;8.03;5.00;;;25.80;46.00;;;;;;5031915;28;20560;-43
2022/07/20 06:10:36;;;;;;;8.53;5.30;;;25.80;46.10;;;;;;5032443;28;20751;-42
2022/07/20 06:13:03;;;;;;;6.97;4.80;;;26.00;46.10;;;;;;5031500;28;20535;-42
2022/07/20 06:15:29;;;;;;;7.40;5.17;;;26.40;45.50;;;;;;5031212;28;20888;-43
2022/07/20 06:17:55;;;;;;;8.23;5.63;;;26.80;44.70;;;;;;5031607;28;20428;-43
2022/07/20 06:20:22;;;;;;;6.10;5.03;;;27.10;44.10;;;;;;5032169;28;20506;-43
2022/07/20 06:22:48;;;;;;;6.27;5.30;;;27.20;43.70;;;;;;5031336;28;20451;-45
2022/07/20 06:25:15;;;;;;;5.87;5.07;;;27.40;43.10;;;;;;5030519;28;20420;-43
2022/07/20 06:27:41;;;;;;;6.27;5.00;;;27.50;43.10;;;;;;5031324;28;20197;-43
2022/07/20 06:30:08;;;;;;;5.50;5.00;;;27.40;43.10;;;;;;5032149;28;20428;-43
2022/07/20 06:32:34;;;;;;;5.73;4.43;;;27.40;43.10;;;;;;5031340;28;20450;-43
2022/07/20 06:35:00;;;;;;;6.90;4.20;;;27.40;43.20;;;;;;5031298;28;21424;-43
2022/07/20 06:37:26;;;;;;;9.37;4.90;;;27.60;43.20;;;;;;5031379;28;20559;-43
2022/07/20 06:39:52;;;;;;;6.83;4.80;;;27.70;42.90;;;;;;5031405;28;20432;-43
2022/07/20 06:42:20;;;;;;;6.23;4.43;;;28.10;42.30;;;;;;5031656;28;20498;-44
2022/07/20 06:44:46;;;;;;;10.47;5.43;;;28.40;41.60;;;;;;5024790;28;20260;-43
2022/07/20 06:47:12;;;;;;;7.10;5.07;;;28.70;40.90;;;;;;5030657;28;20849;-44
2022/07/20 06:49:37;;;;;;;5.17;4.20;;;29.10;40.30;;;;;;5031485;28;20188;-43
2022/07/20 06:52:03;;;;;;;4.50;3.70;;;29.40;39.20;;;;;;5029955;28;20227;-43
2022/07/20 06:54:29;;;;;;;7.57;5.03;;;29.50;38.70;;;;;;5030302;28;20233;-43
2022/07/20 06:56:55;;;;;;;6.73;4.87;;;29.70;38.40;;;;;;5031438;28;20427;-44
2022/07/20 06:59:21;;;;;;;4.17;3.80;;;29.80;38.50;;;;;;5031015;28;20268;-44
2022/07/20 07:01:47;;;;;;;6.13;4.70;;;30.00;37.80;;;;;;5030973;28;20239;-43
2022/07/20 07:04:12;;;;;;;5.00;3.53;;;30.20;38.00;;;;;;5030675;28;20428;-44
2022/07/20 07:06:38;;;;;;;5.70;4.13;;;30.40;37.40;;;;;;5031011;28;20201;-43
2022/07/20 07:09:04;;;;;;;4.50;4.10;;;30.50;37.40;;;;;;5030763;28;20610;-43
2022/07/20 07:11:29;;;;;;;6.97;3.73;;;30.50;37.10;;;;;;5031275;28;20193;-43
2022/07/20 07:13:55;;;;;;;6.93;4.30;;;30.60;37.30;;;;;;5030627;28;20597;-44
2022/07/20 07:16:21;;;;;;;5.40;4.70;;;30.50;36.60;;;;;;5030835;28;20189;-43
2022/07/20 07:18:47;;;;;;;6.40;4.37;;;30.20;37.30;;;;;;5028920;28;20197;-43
2022/07/20 07:21:13;;;;;;;4.57;4.07;;;30.60;37.30;;;;;;5030722;28;20443;-43
2022/07/20 07:23:39;;;;;;;5.50;4.67;;;31.00;36.20;;;;;;5030725;28;20193;-44
2022/07/20 07:26:04;;;;;;;5.40;4.87;;;31.00;35.60;;;;;;5030627;28;20228;-43
2022/07/20 07:28:31;;;;;;;7.23;4.60;;;31.20;35.50;;;;;;5029370;28;20642;-43
2022/07/20 07:30:57;;;;;;;7.33;4.60;;;31.50;35.60;;;;;;5030824;28;20665;-43
2022/07/20 07:33:25;;;;;;;5.77;4.90;;;31.70;35.30;;;;;;5030378;28;20424;-44
2022/07/20 07:35:54;;;;;;;7.53;5.77;;;31.90;34.30;;;;;;5030047;28;20201;-45
2022/07/20 07:38:21;;;;;;;8.93;4.97;;;32.00;34.50;;;;;;5030184;28;20783;-44
2022/07/20 07:40:47;;;;;;;7.03;4.47;;;32.10;34.30;;;;;;5030690;28;20424;-43
2022/07/20 07:43:12;;;;;;;6.33;5.27;;;32.30;33.80;;;;;;5030298;28;20446;-43
2022/07/20 07:45:38;;;;;;;6.13;5.00;;;32.60;33.90;;;;;;5022023;28;20428;-44
2022/07/20 07:48:09;;;;;;;5.87;4.67;;;32.50;33.90;;;;;;5029982;28;20197;-45
2022/07/20 07:50:38;;;;;;;7.83;4.50;;;32.80;33.80;;;;;;5030809;28;20432;-44
2022/07/20 07:53:07;;;;;;;5.90;5.00;;;33.10;33.40;;;;;;5029958;28;20428;-44
2022/07/20 07:55:36;;;;;;;4.97;4.53;;;33.00;33.20;;;;;;5029736;28;20969;-43
2022/07/20 07:58:02;;;;;;;6.00;5.10;;;33.10;33.00;;;;;;5029834;28;20435;-44
2022/07/20 08:00:28;;;;;;;5.63;4.97;;;32.90;33.30;;;;;;5030635;28;20428;-44
2022/07/20 08:02:54;;;;;;;5.20;4.70;;;32.60;33.50;;;;;;5029807;28;20290;-44
2022/07/20 08:05:20;;;;;;;8.10;5.27;;;32.80;33.80;;;;;;5030202;28;20209;-43
2022/07/20 08:07:46;;;;;;;5.50;5.00;;;32.80;33.60;;;;;;5029941;28;20487;-43
2022/07/20 08:10:12;;;;;;;6.60;4.87;;;32.80;33.60;;;;;;5030573;28;20428;-44
2022/07/20 08:12:38;;;;;;;5.80;5.10;;;33.20;33.00;;;;;;5028194;28;20189;-43
2022/07/20 08:15:05;;;;;;;5.73;4.80;;;33.40;32.80;;;;;;5029990;28;20233;-44
2022/07/20 08:17:31;;;;;;;7.07;5.30;;;33.60;32.40;;;;;;5029895;28;20466;-45
2022/07/20 08:19:57;;;;;;;6.03;5.50;;;34.10;32.30;;;;;;5030270;28;20471;-44
2022/07/20 08:22:22;;;;;;;6.10;5.30;;;34.30;31.00;;;;;;5030062;28;20204;-43
2022/07/20 08:24:48;;;;;;;6.30;5.33;;;34.50;31.00;;;;;;5029522;28;20663;-43
2022/07/20 08:27:13;;;;;;;5.33;4.90;;;34.40;31.00;;;;;;5030365;28;20228;-44
2022/07/20 08:29:39;;;;;;;6.03;5.27;;;34.50;31.70;;;;;;5029854;28;20274;-44
2022/07/20 08:32:05;;;;;;;6.53;5.93;;;34.50;31.30;;;;;;5029915;28;20185;-44
2022/07/20 08:34:31;;;;;;;6.10;5.50;;;34.60;31.50;;;;;;5029132;28;20241;-44
2022/07/20 08:36:56;;;;;;;6.40;5.13;;;34.60;31.10;;;;;;5029858;28;20243;-44
2022/07/20 08:39:22;;;;;;;9.53;5.33;;;34.60;31.10;;;;;;5029867;28;20254;-45
2022/07/20 08:41:48;;;;;;;6.77;4.87;;;34.80;31.00;;;;;;5033988;28;20633;-44
2022/07/20 08:44:14;;;;;;;6.10;4.93;;;34.80;31.00;;;;;;5031557;28;20189;-44
2022/07/20 08:46:43;;;;;;;9.57;5.17;;;35.20;31.20;;;;;;5028570;28;20424;-45
2022/07/20 08:49:08;;;;;;;8.53;5.33;;;35.20;30.10;;;;;;5033625;28;20531;-45
2022/07/20 08:51:34;;;;;;;5.30;4.80;;;35.40;29.90;;;;;;5033969;28;20486;-44
2022/07/20 08:54:00;;;;;;;6.03;4.73;;;35.80;29.60;;;;;;5032921;28;20225;-44
2022/07/20 08:56:26;;;;;;;5.87;4.80;;;36.10;29.10;;;;;;5033411;28;20199;-45
2022/07/20 08:58:52;;;;;;;7.77;5.37;;;36.30;29.10;;;;;;5033121;28;20467;-47
2022/07/20 09:01:19;;;;;;;5.90;5.30;;;36.60;28.80;;;;;;5033441;28;20452;-44
2022/07/20 09:04:10;;;;;;;5.60;5.00;;;36.90;28.40;;;;;;5033249;28;20197;-44
2022/07/20 09:06:44;;;;;;;5.47;5.03;;;37.20;28.80;;;;;;5031896;28;20492;-44
2022/07/20 09:09:10;;;;;;;5.77;5.37;;;37.40;28.00;;;;;;5033296;28;20510;-44
2022/07/20 09:11:36;;;;;;;6.53;5.93;;;37.30;28.00;;;;;;5033673;28;20938;-44
2022/07/20 09:14:02;;;;;;;7.50;5.50;;;37.40;27.80;;;;;;5032765;28;20479;-45
2022/07/20 09:16:31;;;;;;;6.40;5.87;;;37.60;27.40;;;;;;5032959;28;20201;-45
2022/07/20 09:18:57;;;;;;;7.67;5.87;;;37.90;27.30;;;;;;5032802;28;20656;-46
2022/07/20 09:21:31;;;;;;;6.73;6.00;;;38.20;26.70;;;;;;5033100;28;20478;-45
2022/07/20 09:24:04;;;;;;;6.30;5.70;;;38.40;26.10;;;;;;5032731;28;20205;-44
2022/07/20 09:26:31;;;;;;;6.60;5.40;;;38.50;26.40;;;;;;5032890;28;20801;-44
2022/07/20 09:28:58;;;;;;;5.87;5.30;;;38.70;26.00;;;;;;5032376;28;20440;-45
2022/07/20 09:31:30;;;;;;;6.47;5.77;;;38.80;25.80;;;;;;5032856;28;20466;-45
2022/07/20 09:34:07;;;;;;;5.97;5.37;;;38.80;25.50;;;;;;5031448;28;20590;-44
2022/07/20 09:36:35;;;;;;;7.23;6.60;;;39.10;25.30;;;;;;5032743;28;20529;-45
2022/07/20 09:39:18;;;;;;;6.40;5.90;;;39.20;25.20;;;;;;5032362;28;20423;-44
2022/07/20 09:41:58;;;;;;;8.37;6.33;;;39.30;25.40;;;;;;5063915;28;20648;-45
2022/07/20 09:44:29;;;;;;;10.40;6.10;;;39.60;25.20;;;;;;5029223;28;20478;-45
2022/07/20 09:46:55;;;;;;;7.87;6.53;;;39.90;24.70;;;;;;5029296;28;20467;-45
2022/07/20 09:49:29;;;;;;;10.10;6.53;;;40.00;24.00;;;;;;5032426;28;20868;-45
2022/07/20 09:51:59;;;;;;;7.80;7.00;;;40.30;24.10;;;;;;5032115;28;20428;-48
2022/07/20 09:54:25;;;;;;;6.70;6.10;;;40.50;24.10;;;;;;5031971;28;20479;-47
2022/07/20 09:56:51;;;;;;;7.13;6.53;;;40.50;23.80;;;;;;5032354;28;20424;-49
2022/07/20 09:59:19;;;;;;;8.77;6.60;;;40.40;22.80;;;;;;5030530;28;20193;-45
2022/07/20 10:01:48;;;;;;;7.23;6.53;;;40.10;22.90;;;;;;5032416;28;20919;-44
2022/07/20 10:04:14;;;;;;;8.17;7.40;;;40.10;23.40;;;;;;5031464;28;20526;-48
2022/07/20 10:06:44;;;;;;;8.47;7.70;;;40.10;23.60;;;;;;5032587;28;20431;-49
2022/07/20 10:09:11;;;;;;;8.33;7.03;;;40.20;23.20;;;;;;5032141;28;20420;-45
2022/07/20 10:11:37;;;;;;;10.10;6.90;;;40.50;23.30;;;;;;5032306;28;20438;-48
2022/07/20 10:14:04;;;;;;;7.83;7.13;;;40.70;23.20;;;;;;5031737;28;20475;-48
2022/07/20 10:16:50;;;;;;;7.53;6.80;;;41.00;22.90;;;;;;5032323;28;20189;-45
2022/07/20 10:19:16;;;;;;;11.03;8.07;;;41.10;23.10;;;;;;5031644;28;20488;-49
2022/07/20 10:21:52;;;;;;;7.80;7.17;;;41.40;23.10;;;;;;5032364;28;20910;-47
2022/07/20 10:24:22;;;;;;;7.97;7.30;;;41.70;22.80;;;;;;5031233;28;20530;-44
2022/07/20 10:26:54;;;;;;;8.40;7.53;;;41.90;21.90;;;;;;5030578;28;20474;-50
2022/07/20 10:29:37;;;;;;;7.97;7.17;;;42.00;21.60;;;;;;5031281;28;20434;-45
2022/07/20 10:32:09;;;;;;;14.33;7.63;;;42.10;22.00;;;;;;5031919;28;20450;-49
2022/07/20 10:34:45;;;;;;;9.50;7.30;;;42.20;22.00;;;;;;5030944;28;20626;-46
2022/07/20 10:37:25;;;;;;;8.10;7.60;;;42.40;21.80;;;;;;5031510;28;20259;-46
2022/07/20 10:40:12;;;;;;;8.10;7.30;;;42.50;21.70;;;;;;5031493;28;20443;-48
2022/07/20 10:42:50;;;;;;;8.20;7.20;;;42.60;21.40;;;;;;5031565;28;20497;-44
2022/07/20 10:45:27;;;;;;;8.85;7.80;;;42.80;21.80;;;;;;5024525;28;20228;-48
2022/07/20 10:48:14;;;;;;;7.65;7.10;;;42.90;20.40;;;;;;5030876;28;20193;-45
2022/07/20 10:50:43;;;;;;;8.63;6.80;;;42.90;20.70;;;;;;5031742;28;20677;-47
2022/07/20 10:53:11;;;;;;;9.93;7.15;;;42.90;20.80;;;;;;5029537;28;20675;-50
2022/07/20 10:55:37;;;;;;;8.50;7.07;;;43.00;20.40;;;;;;5031260;28;20271;-45
2022/07/20 10:58:07;;;;;;;8.13;7.40;;;43.10;20.60;;;;;;5030585;28;20228;-46
2022/07/20 11:00:41;;;;;;;7.70;6.90;;;43.20;20.60;;;;;;5031430;28;20231;-45
2022/07/20 11:03:17;;;;;;;7.45;6.90;;;43.10;21.00;;;;;;5027182;28;20196;-45
2022/07/20 11:05:44;;;;;;;8.40;7.50;;;43.10;21.30;;;;;;5031041;28;20287;-45
2022/07/20 11:08:11;;;;;;;7.68;7.07;;;43.30;21.00;;;;;;5030641;28;20262;-49
2022/07/20 11:10:38;;;;;;;8.50;7.15;;;43.30;21.20;;;;;;5031548;28;20296;-49
2022/07/20 11:13:06;;;;;;;9.07;7.22;;;43.40;21.00;;;;;;5030524;28;20293;-45
2022/07/20 11:15:49;;;;;;;7.93;7.22;;;43.60;20.90;;;;;;5030650;28;20267;-47
2022/07/20 11:18:17;;;;;;;8.98;7.32;;;43.60;21.20;;;;;;5030682;28;20278;-47
2022/07/20 11:20:55;;;;;;;7.50;6.90;;;43.60;20.30;;;;;;5029191;28;20289;-45
2022/07/20 11:23:23;;;;;;;14.43;7.30;;;43.70;20.30;;;;;;5030441;28;20200;-46
2022/07/20 11:26:00;;;;;;;7.72;7.03;;;43.60;20.70;;;;;;5030646;28;20624;-46
2022/07/20 11:28:30;;;;;;;7.22;6.57;;;43.60;20.50;;;;;;5030270;28;20188;-45
2022/07/20 11:30:57;;;;;;;9.52;7.35;;;43.60;20.50;;;;;;5030886;28;20197;-46
2022/07/20 11:33:32;;;;;;;9.70;8.00;;;43.70;21.00;;;;;;5030266;28;20224;-47
2022/07/20 11:36:04;;;;;;;8.52;7.72;;;43.70;20.20;;;;;;5030337;28;20561;-46
2022/07/20 11:38:48;;;;;;;7.20;6.63;;;43.70;20.10;;;;;;5030010;28;20193;-45
2022/07/20 11:41:18;;;;;;;7.55;6.93;;;43.80;20.10;;;;;;5030748;28;20251;-48
2022/07/20 11:43:44;;;;;;;9.63;6.60;;;44.10;20.90;;;;;;5030228;28;20530;-48
2022/07/20 11:46:28;;;;;;;11.45;7.22;;;44.20;20.80;;;;;;5023415;28;20207;-49
2022/07/20 11:49:00;;;;;;;6.60;5.97;;;44.30;19.60;;;;;;5030068;28;20192;-48
2022/07/20 11:51:28;;;;;;;19.75;7.38;;;44.30;19.60;;;;;;5030708;28;20197;-45
2022/07/20 11:53:54;;;;;;;8.48;6.80;;;44.10;20.50;;;;;;5029999;28;20216;-49
2022/07/20 11:56:21;;;;;;;10.70;7.05;;;44.30;20.00;;;;;;5030426;28;20216;-45
2022/07/20 11:58:51;;;;;;;8.23;7.47;;;44.40;19.70;;;;;;5030065;28;20199;-45
2022/07/20 12:01:31;;;;;;;10.85;7.20;;;44.40;19.90;;;;;;5030415;28;20211;-46
2022/07/20 12:04:06;;;;;;;7.97;7.05;;;44.60;20.10;;;;;;5029607;28;20196;-47
2022/07/20 12:06:34;;;;;;;7.95;7.18;;;44.60;20.60;;;;;;5030442;28;20718;-49
2022/07/20 12:09:12;;;;;;;7.55;6.85;;;44.60;19.80;;;;;;5029896;28;20312;-45
2022/07/20 12:11:55;;;;;;;8.13;7.32;;;44.50;20.20;;;;;;5030689;28;20188;-45
2022/07/20 12:14:29;;;;;;;7.40;6.80;;;44.40;20.10;;;;;;5029615;28;20660;-46
2022/07/20 12:16:55;;;;;;;7.60;6.90;;;44.40;20.10;;;;;;5034719;28;20188;-46
2022/07/20 12:19:21;;;;;;;11.55;7.15;;;44.20;20.40;;;;;;5034066;28;20250;-45
2022/07/20 12:21:47;;;;;;;8.13;7.30;;;44.20;20.60;;;;;;5034515;28;20204;-52
2022/07/20 12:24:12;;;;;;;8.02;6.95;;;44.00;20.50;;;;;;5033207;28;20200;-49
2022/07/20 12:26:38;;;;;;;7.50;6.80;;;44.10;20.20;;;;;;5034509;28;20258;-49
2022/07/20 12:29:24;;;;;;;8.38;7.45;;;44.30;20.70;;;;;;5033774;28;20652;-45
2022/07/20 12:31:59;;;;;;;7.63;7.13;;;44.50;20.60;;;;;;5034048;28;20200;-48
2022/07/20 12:34:25;;;;;;;8.70;8.00;;;44.70;20.60;;;;;;5033066;28;20307;-45
2022/07/20 12:36:52;;;;;;;8.95;8.05;;;44.80;20.40;;;;;;5033688;28;20692;-46
2022/07/20 12:39:40;;;;;;;15.20;8.18;;;44.60;20.10;;;;;;5033493;28;20287;-46
2022/07/20 12:42:29;;;;;;;8.45;7.95;;;44.80;20.30;;;;;;5032581;28;20216;-45
2022/07/20 12:45:03;;;;;;;8.60;7.80;;;44.80;20.70;;;;;;5026533;28;20201;-46
2022/07/20 12:47:30;;;;;;;9.70;8.27;;;45.00;19.80;;;;;;5021499;28;20203;-49
2022/07/20 12:49:55;;;;;;;9.70;8.80;;;45.00;20.30;;;;;;5033517;28;20215;-50
2022/07/20 12:52:21;;;;;;;8.55;7.72;;;45.10;20.50;;;;;;5033886;28;20192;-45